This is the latest recevied weather packets stored in our database for station/object KE5SXT-2. If no packets are shown the sender has not sent any weather packets the latest 10 day(s).
| Time | Temp. | Humidity | Pressure | Rain* | Wind** | Luminosity | Snow |
|---|---|---|---|---|---|---|---|
| 1778101822 | 26.67° C | 29% | 1012.3 hPa | 0 mm | - | - | - |
| 1778100672 | 26.11° C | 29% | 1012.5 hPa | 0 mm | - | - | - |
| 1778098822 | 25° C | 31% | 1013 hPa | 0 mm | - | - | - |
| 1778093422 | 22.78° C | 38% | 1013.7 hPa | 0 mm | - | - | - |
| 1778087422 | 20° C | 47% | 1014.1 hPa | 0 mm | - | - | - |
| 1778086822 | 19.44° C | 47% | 1014.2 hPa | 0 mm | - | - | - |
| 1778085021 | 18.89° C | 50% | 1014 hPa | 0 mm | - | - | - |
| 1778078446 | 22.22° C | 33% | 1013.7 hPa | 0 mm | - | - | - |
| 1778076021 | 21.11° C | 33% | 1013 hPa | 0 mm | - | - | - |
| 1778074221 | 20.56° C | 35% | 1012.3 hPa | 0 mm | - | - | - |
| 1778073621 | 20.56° C | 33% | 1012.4 hPa | 0 mm | - | - | - |
| 1778072421 | 20° C | 33% | 1012 hPa | 0 mm | - | - | - |
| 1778071246 | 21.11° C | 31% | 1011.8 hPa | 0 mm | - | - | - |
| 1778065821 | 22.78° C | 26% | 1011.3 hPa | 0 mm | - | - | - |
| 1778065221 | 23.33° C | 26% | 1011.4 hPa | 0 mm | - | - | - |
| 1778064021 | 23.33° C | 27% | 1011.3 hPa | 0 mm | - | - | - |
| 1778062821 | 23.33° C | 29% | 1011.2 hPa | 0 mm | - | - | - |
| 1778058621 | 20° C | 49% | 1010.6 hPa | 0 mm | - | - | - |
| 1778058024 | 20° C | 49% | 1010.5 hPa | 0 mm | - | - | - |
| 1778053220 | 20.56° C | 43% | 1010.5 hPa | 0 mm | - | - | - |
| 1778051420 | 20.56° C | 47% | 1010.6 hPa | 0 mm | - | - | - |
| 1778047221 | 21.11° C | 42% | 1010.5 hPa | 0 mm | - | - | - |
| 1778045420 | 21.11° C | 41% | 1010.4 hPa | 0 mm | - | - | - |
| 1778044220 | 21.67° C | 39% | 1010.4 hPa | 0 mm | - | - | - |
| 1778043620 | 21.67° C | 39% | 1010.3 hPa | 0 mm | - | - | - |
* Rain latest hour (hover to see other rain measurements)
** Current wind speed in m/s (hover to see current wind gust speed)